createdAt,value
2022-11-10T00:00:43.741Z,101712.97
2022-11-10T00:05:51.804Z,101729.25
2022-11-10T00:11:01.903Z,101724.81
2022-11-10T00:16:24.984Z,101741.19
2022-11-10T00:21:33.231Z,101748.09
2022-11-10T00:26:41.115Z,101749.88
2022-11-10T00:31:51.679Z,101760.19
2022-11-10T00:36:59.894Z,101755.06
2022-11-10T00:42:08.396Z,101752.38
2022-11-10T00:47:18.808Z,101757.50
2022-11-10T00:52:26.763Z,101761.81
2022-11-10T00:57:34.661Z,101766.91
2022-11-10T01:02:45.353Z,101773.66
2022-11-10T01:07:53.562Z,101787.41
2022-11-10T01:13:01.563Z,101784.81
2022-11-10T01:18:12.411Z,101778.75
2022-11-10T01:23:20.817Z,101780.47
2022-11-10T01:28:29.371Z,101794.16
2022-11-10T01:33:40.359Z,101788.03
2022-11-10T01:38:48.514Z,101785.38
2022-11-10T01:43:58.320Z,101786.22
2022-11-10T01:49:09.612Z,101793.88
2022-11-10T01:54:21.774Z,101796.47
2022-11-10T01:59:31.598Z,101800.00
2022-11-10T02:04:44.205Z,101803.44
2022-11-10T02:09:52.656Z,101813.78
2022-11-10T02:15:00.453Z,101826.69
2022-11-10T02:20:12.682Z,101841.31
2022-11-10T02:25:24.300Z,101844.66
2022-11-10T02:30:31.975Z,101840.31
2022-11-10T02:35:40.101Z,101848.81
2022-11-10T02:40:51.334Z,101848.75
2022-11-10T02:46:00.899Z,101864.13
2022-11-10T02:51:08.819Z,101876.16
2022-11-10T02:56:19.335Z,101875.31
2022-11-10T03:01:27.592Z,101889.94
2022-11-10T03:06:36.091Z,101891.69
2022-11-10T03:11:47.251Z,101897.63
2022-11-10T03:16:55.210Z,101906.25
2022-11-10T03:22:03.712Z,101917.44
2022-11-10T03:27:14.730Z,101915.75
2022-11-10T03:32:22.886Z,101912.28
2022-11-10T03:37:31.031Z,101919.09
2022-11-10T03:42:43.752Z,101918.31
2022-11-10T03:47:52.111Z,101919.06
2022-11-10T03:53:00.106Z,101937.97
2022-11-10T03:58:10.487Z,101935.38
2022-11-10T04:03:20.439Z,101946.56
2022-11-10T04:08:46.856Z,101936.34
2022-11-10T04:14:10.096Z,101952.59
2022-11-10T04:19:18.320Z,101965.53
2022-11-10T04:24:26.280Z,101974.25
2022-11-10T04:29:37.247Z,101983.69
2022-11-10T04:34:45.399Z,101999.06
2022-11-10T04:39:53.493Z,102003.47
2022-11-10T04:45:04.233Z,102001.63
2022-11-10T04:50:12.730Z,101998.06
2022-11-10T04:55:20.655Z,102001.44
2022-11-10T05:00:31.861Z,102011.59
2022-11-10T05:05:39.877Z,102017.59
2022-11-10T05:10:48.069Z,102014.16
2022-11-10T05:15:58.890Z,102026.06
2022-11-10T05:21:07.251Z,102030.31
2022-11-10T05:26:15.920Z,102034.63
2022-11-10T05:31:26.814Z,102044.84
2022-11-10T05:36:34.734Z,102047.44
2022-11-10T05:41:42.767Z,102043.19
2022-11-10T05:46:53.332Z,102051.03
2022-11-10T05:52:01.247Z,102056.31
2022-11-10T05:57:09.784Z,102057.25
2022-11-10T06:02:20.198Z,102053.03
2022-11-10T06:07:27.901Z,102060.78
2022-11-10T06:12:35.935Z,102070.22
2022-11-10T06:17:46.929Z,102074.41
2022-11-10T06:23:02.392Z,102084.72
2022-11-10T06:28:11.876Z,102092.44
2022-11-10T06:33:23.662Z,102101.91
2022-11-10T06:38:31.779Z,102102.84
2022-11-10T06:43:40.015Z,102111.50
2022-11-10T06:48:50.927Z,102124.50
2022-11-10T06:53:58.712Z,102128.97
2022-11-10T06:59:07.110Z,102142.91
2022-11-10T07:04:20.156Z,102158.59
2022-11-10T07:09:28.374Z,102170.84
2022-11-10T07:14:37.911Z,102183.03
2022-11-10T07:19:48.493Z,102185.69
2022-11-10T07:24:56.350Z,102184.09
2022-11-10T07:30:04.419Z,102176.50
2022-11-10T07:35:14.830Z,102173.97
2022-11-10T07:40:22.748Z,102177.69
2022-11-10T07:45:31.158Z,102189.94
2022-11-10T07:50:41.514Z,102205.66
2022-11-10T07:55:49.611Z,102216.16
2022-11-10T08:00:57.405Z,102214.66
2022-11-10T08:06:08.550Z,102198.56
2022-11-10T08:11:16.386Z,102219.44
2022-11-10T08:16:24.208Z,102228.38
2022-11-10T08:21:34.970Z,102235.59
2022-11-10T08:26:43.374Z,102236.91
2022-11-10T08:31:51.671Z,102243.28
2022-11-10T08:37:02.303Z,102247.94
2022-11-10T08:42:10.254Z,102255.91
2022-11-10T08:47:18.375Z,102268.03
2022-11-10T08:52:29.135Z,102269.06
2022-11-10T08:57:37.287Z,102267.41
2022-11-10T09:02:45.414Z,102264.88
2022-11-10T09:07:55.875Z,102276.34
2022-11-10T09:13:04.112Z,102275.69
2022-11-10T09:18:14.203Z,102281.97
2022-11-10T09:23:26.462Z,102277.53
2022-11-10T09:28:34.763Z,102287.53
2022-11-10T09:33:42.891Z,102286.97
2022-11-10T09:38:54.051Z,102284.09
2022-11-10T09:44:08.656Z,102301.13
2022-11-10T09:49:26.234Z,102320.59
2022-11-10T09:54:41.677Z,102320.16
2022-11-10T09:59:50.230Z,102317.78
2022-11-10T10:05:09.783Z,102333.56
2022-11-10T10:10:23.940Z,102355.19
2022-11-10T10:15:36.232Z,102364.78
2022-11-10T10:20:48.732Z,102389.31
2022-11-10T10:25:59.604Z,102404.16
2022-11-10T10:31:15.227Z,102414.28
2022-11-10T10:36:25.779Z,102400.44
2022-11-10T10:41:39.380Z,102391.91
2022-11-10T10:46:48.671Z,102385.66
2022-11-10T10:52:05.434Z,102380.31
2022-11-10T10:57:23.623Z,102392.44
2022-11-10T11:02:33.033Z,102408.94
2022-11-10T11:07:41.557Z,102412.41
2022-11-10T11:12:52.452Z,102415.69
2022-11-10T11:18:02.559Z,102416.47
2022-11-10T11:23:19.751Z,102418.19
2022-11-10T11:28:37.164Z,102432.16
2022-11-10T11:33:47.603Z,102450.56
2022-11-10T11:39:01.099Z,102449.84
2022-11-10T11:44:29.354Z,102464.66
2022-11-10T11:49:52.542Z,102478.47
2022-11-10T11:55:12.642Z,102456.63
2022-11-10T12:00:24.619Z,102454.03
2022-11-10T12:05:36.682Z,102457.50
2022-11-10T12:10:51.363Z,102470.50
2022-11-10T12:16:04.596Z,102456.59
2022-11-10T12:21:23.467Z,102445.41
2022-11-10T12:26:38.903Z,102449.88
2022-11-10T12:31:51.249Z,102473.38
2022-11-10T12:37:00.563Z,102480.31
2022-11-10T12:42:13.362Z,102470.00
2022-11-10T12:47:25.617Z,102471.78
2022-11-10T12:52:36.781Z,102461.41
2022-11-10T12:57:45.414Z,102452.81
2022-11-10T13:02:57.263Z,102470.38
2022-11-10T13:08:17.790Z,102472.31
2022-11-10T13:13:27.620Z,102461.25
2022-11-10T13:19:05.660Z,102467.38
2022-11-10T13:24:26.493Z,102469.88
2022-11-10T13:29:36.357Z,102475.84
2022-11-10T13:34:44.629Z,102463.63
2022-11-10T13:39:55.723Z,102449.63
2022-11-10T13:45:19.256Z,102457.41
2022-11-10T13:50:32.811Z,102455.56
2022-11-10T13:55:56.276Z,102435.56
2022-11-10T14:01:22.110Z,102446.78
2022-11-10T14:06:43.173Z,102453.16
2022-11-10T14:11:53.210Z,102474.28
2022-11-10T14:17:01.016Z,102473.59
2022-11-10T14:22:20.239Z,102496.13
2022-11-10T14:27:29.252Z,102499.44
2022-11-10T14:32:38.368Z,102493.16
2022-11-10T14:37:49.633Z,102496.44
2022-11-10T14:43:00.912Z,102508.38
2022-11-10T14:48:19.456Z,102509.97
2022-11-10T14:53:32.127Z,102519.41
2022-11-10T14:58:41.405Z,102512.34
2022-11-10T15:03:56.732Z,102524.34
2022-11-10T15:09:21.664Z,102534.63
2022-11-10T15:14:39.599Z,102522.31
2022-11-10T15:19:58.529Z,102529.97
2022-11-10T15:25:16.481Z,102532.38
2022-11-10T15:30:26.118Z,102550.38
2022-11-10T15:35:37.057Z,102557.19
2022-11-10T15:40:54.889Z,102559.53
2022-11-10T15:46:03.750Z,102549.06
2022-11-10T15:51:13.542Z,102547.16
2022-11-10T15:56:24.946Z,102550.44
2022-11-10T16:01:33.765Z,102551.94
2022-11-10T16:06:43.113Z,102546.50
2022-11-10T16:11:53.657Z,102560.22
2022-11-10T16:17:02.971Z,102554.81
2022-11-10T16:22:12.538Z,102563.31
2022-11-10T16:27:23.355Z,102580.50
2022-11-10T16:32:35.917Z,102584.69
2022-11-10T16:37:47.427Z,102588.09
2022-11-10T16:42:58.336Z,102581.97
2022-11-10T16:48:09.974Z,102582.72
2022-11-10T16:53:18.840Z,102586.97
2022-11-10T16:58:29.674Z,102590.31
2022-11-10T17:03:39.443Z,102584.13
2022-11-10T17:08:49.690Z,102590.03
2022-11-10T17:14:00.445Z,102599.47
2022-11-10T17:19:10.199Z,102591.53
2022-11-10T17:24:19.204Z,102606.97
2022-11-10T17:29:29.757Z,102611.09
2022-11-10T17:34:38.282Z,102616.09
2022-11-10T17:39:46.621Z,102623.69
2022-11-10T17:44:57.204Z,102636.53
2022-11-10T17:50:05.111Z,102627.78
2022-11-10T17:55:17.540Z,102628.50
2022-11-10T18:00:33.914Z,102640.44
2022-11-10T18:05:41.824Z,102637.66
2022-11-10T18:10:54.052Z,102634.88
2022-11-10T18:16:04.898Z,102639.03
2022-11-10T18:21:12.976Z,102639.72
2022-11-10T18:26:20.926Z,102628.22
2022-11-10T18:31:36.988Z,102635.81
2022-11-10T18:36:45.170Z,102637.38
2022-11-10T18:41:53.001Z,102626.09
2022-11-10T18:47:03.928Z,102632.13
2022-11-10T18:52:12.174Z,102627.78
2022-11-10T18:57:21.340Z,102648.44
2022-11-10T19:02:32.029Z,102657.88
2022-11-10T19:07:39.967Z,102665.59
2022-11-10T19:12:48.044Z,102674.94
2022-11-10T19:17:58.721Z,102673.16
2022-11-10T19:23:07.019Z,102661.06
2022-11-10T19:28:16.290Z,102667.97
2022-11-10T19:33:27.053Z,102684.28
2022-11-10T19:38:36.034Z,102698.84
2022-11-10T19:43:47.775Z,102709.06
2022-11-10T19:48:58.585Z,102719.25
2022-11-10T19:54:09.020Z,102709.53
2022-11-10T19:59:19.277Z,102693.03
2022-11-10T20:04:29.953Z,102688.47
2022-11-10T20:09:38.034Z,102691.75
2022-11-10T20:14:45.979Z,102686.41
2022-11-10T20:19:56.504Z,102688.88
2022-11-10T20:25:04.972Z,102686.34
2022-11-10T20:30:13.354Z,102679.41
2022-11-10T20:35:24.086Z,102681.94
2022-11-10T20:40:43.947Z,102681.03
2022-11-10T20:45:54.955Z,102684.38
2022-11-10T20:51:10.876Z,102689.44
2022-11-10T20:56:19.323Z,102695.41
2022-11-10T21:01:27.930Z,102703.13
2022-11-10T21:06:39.072Z,102728.91
2022-11-10T21:11:59.363Z,102727.28
2022-11-10T21:17:07.408Z,102725.56
2022-11-10T21:22:18.058Z,102727.91
2022-11-10T21:27:25.942Z,102733.84
2022-11-10T21:32:37.655Z,102736.41
2022-11-10T21:37:48.546Z,102759.59
2022-11-10T21:42:56.958Z,102772.41
2022-11-10T21:48:05.368Z,102774.94
2022-11-10T21:53:16.328Z,102793.06
2022-11-10T21:58:23.933Z,102798.22
2022-11-10T22:03:32.168Z,102801.72
2022-11-10T22:08:43.490Z,102800.19
2022-11-10T22:14:04.226Z,102794.16
2022-11-10T22:19:12.229Z,102810.53
2022-11-10T22:24:29.342Z,102797.59
2022-11-10T22:29:37.631Z,102793.22
2022-11-10T22:34:45.532Z,102787.00
2022-11-10T22:40:08.667Z,102804.94
2022-11-10T22:45:17.125Z,102800.53
2022-11-10T22:50:25.062Z,102813.34
2022-11-10T22:55:36.090Z,102817.59
2022-11-10T23:00:44.213Z,102835.56
2022-11-10T23:05:56.210Z,102848.47
2022-11-10T23:11:09.047Z,102851.91
2022-11-10T23:16:18.083Z,102859.69
2022-11-10T23:21:28.357Z,102859.84
2022-11-10T23:26:38.974Z,102859.00
2022-11-10T23:31:46.972Z,102853.13
2022-11-10T23:36:55.058Z,102857.44
2022-11-10T23:42:05.732Z,102854.84
2022-11-10T23:47:13.705Z,102848.00
2022-11-10T23:52:22.415Z,102858.34
2022-11-10T23:57:33.117Z,102866.13
